createdAt,value
2023-03-19T00:01:10.111Z,4.60
2023-03-19T00:03:38.851Z,5.38
2023-03-19T00:06:07.988Z,4.40
2023-03-19T00:08:36.546Z,4.75
2023-03-19T00:11:10.666Z,5.40
2023-03-19T00:13:39.153Z,5.80
2023-03-19T00:16:08.696Z,5.97
2023-03-19T00:18:37.595Z,5.82
2023-03-19T00:21:09.408Z,5.65
2023-03-19T00:23:38.044Z,5.40
2023-03-19T00:26:07.733Z,5.20
2023-03-19T00:28:38.062Z,4.93
2023-03-19T00:31:12.360Z,5.63
2023-03-19T00:33:43.547Z,5.93
2023-03-19T00:36:12.984Z,5.20
2023-03-19T00:38:44.181Z,5.78
2023-03-19T00:41:17.351Z,6.20
2023-03-19T00:43:47.132Z,6.40
2023-03-19T00:46:15.895Z,6.78
2023-03-19T00:48:44.464Z,6.88
2023-03-19T00:51:12.991Z,6.47
2023-03-19T00:53:43.976Z,6.47
2023-03-19T00:56:14.375Z,5.65
2023-03-19T00:58:43.345Z,5.35
2023-03-19T01:01:19.119Z,5.38
2023-03-19T01:03:48.259Z,5.55
2023-03-19T01:06:16.813Z,5.10
2023-03-19T01:08:45.284Z,5.88
2023-03-19T01:11:17.228Z,5.38
2023-03-19T01:13:46.763Z,5.55
2023-03-19T01:16:18.775Z,5.10
2023-03-19T01:18:47.200Z,5.40
2023-03-19T01:21:15.757Z,4.72
2023-03-19T01:23:44.295Z,5.15
2023-03-19T01:26:13.157Z,5.45
2023-03-19T01:28:44.727Z,5.00
2023-03-19T01:31:13.206Z,5.22
2023-03-19T01:33:43.850Z,5.15
2023-03-19T01:36:13.143Z,5.38
2023-03-19T01:38:42.737Z,5.53
2023-03-19T01:41:12.223Z,6.05
2023-03-19T01:43:40.753Z,5.25
2023-03-19T01:46:15.798Z,5.72
2023-03-19T01:48:48.752Z,5.22
2023-03-19T01:51:27.028Z,6.20
2023-03-19T01:53:59.834Z,6.38
2023-03-19T01:56:32.413Z,6.68
2023-03-19T01:59:05.891Z,6.65
2023-03-19T02:01:37.606Z,6.88
2023-03-19T02:04:08.491Z,7.40
2023-03-19T02:06:37.780Z,7.90
2023-03-19T02:09:09.257Z,7.45
2023-03-19T02:11:38.771Z,8.38
2023-03-19T02:14:07.116Z,9.52
2023-03-19T02:16:35.458Z,8.95
2023-03-19T02:19:05.598Z,9.32
2023-03-19T02:21:35.268Z,10.73
2023-03-19T02:24:12.357Z,10.40
2023-03-19T02:26:43.665Z,10.02
2023-03-19T02:29:12.108Z,9.40
2023-03-19T02:31:40.640Z,9.73
2023-03-19T02:34:37.688Z,9.32
2023-03-19T02:37:13.461Z,9.75
2023-03-19T02:39:51.358Z,9.65
2023-03-19T02:42:22.974Z,10.90
2023-03-19T02:44:51.291Z,10.43
2023-03-19T02:47:19.994Z,11.25
2023-03-19T02:49:48.351Z,10.60
2023-03-19T02:52:17.098Z,11.40
2023-03-19T02:54:45.423Z,9.73
2023-03-19T02:57:13.920Z,10.48
2023-03-19T02:59:43.579Z,10.25
2023-03-19T03:02:12.392Z,11.35
2023-03-19T03:04:41.586Z,11.13
2023-03-19T03:07:10.096Z,11.80
2023-03-19T03:09:38.529Z,15.02
2023-03-19T03:12:08.417Z,15.07
2023-03-19T03:14:36.734Z,13.80
2023-03-19T03:17:08.799Z,11.88
2023-03-19T03:19:37.414Z,11.95
2023-03-19T03:22:09.161Z,10.73
2023-03-19T03:24:39.521Z,10.35
2023-03-19T03:27:08.278Z,9.85
2023-03-19T03:29:36.786Z,9.50
2023-03-19T03:32:07.814Z,10.07
2023-03-19T03:34:36.418Z,9.52
2023-03-19T03:37:04.718Z,9.93
2023-03-19T03:39:33.227Z,9.60
2023-03-19T03:42:01.492Z,10.05
2023-03-19T03:44:29.783Z,9.90
2023-03-19T03:46:58.164Z,10.88
2023-03-19T03:49:28.223Z,11.35
2023-03-19T03:51:57.315Z,12.10
2023-03-19T03:54:25.963Z,12.82
2023-03-19T03:56:54.264Z,15.50
2023-03-19T03:59:22.729Z,19.80
2023-03-19T04:01:51.259Z,21.35
2023-03-19T04:04:20.189Z,21.33
2023-03-19T04:06:49.937Z,21.02
2023-03-19T04:09:21.853Z,20.67
2023-03-19T04:11:51.543Z,19.40
2023-03-19T04:14:20.024Z,18.33
2023-03-19T04:16:48.394Z,18.33
2023-03-19T04:19:16.996Z,18.55
2023-03-19T04:21:45.692Z,19.83
2023-03-19T04:24:16.690Z,19.52
2023-03-19T04:26:47.117Z,19.42
2023-03-19T04:29:15.675Z,21.27
2023-03-19T04:31:43.999Z,19.95
2023-03-19T04:34:13.059Z,21.77
2023-03-19T04:36:41.581Z,20.70
2023-03-19T04:39:10.088Z,21.63
2023-03-19T04:41:39.874Z,24.20
2023-03-19T04:44:08.481Z,22.13
2023-03-19T04:46:37.033Z,21.85
2023-03-19T04:49:08.138Z,20.05
2023-03-19T04:51:36.491Z,21.67
2023-03-19T04:54:05.467Z,22.20
2023-03-19T04:56:33.802Z,22.80
2023-03-19T04:59:03.748Z,20.45
2023-03-19T05:01:33.048Z,21.50
2023-03-19T05:04:02.397Z,21.48
2023-03-19T05:06:31.303Z,21.10
2023-03-19T05:09:00.046Z,20.80
2023-03-19T05:11:28.415Z,19.98
2023-03-19T05:13:56.814Z,19.55
2023-03-19T05:16:26.933Z,19.88
2023-03-19T05:18:55.315Z,19.67
2023-03-19T05:21:23.934Z,21.38
2023-03-19T05:23:54.644Z,22.23
2023-03-19T05:26:22.941Z,20.55
2023-03-19T05:28:51.337Z,21.45
2023-03-19T05:31:19.598Z,20.90
2023-03-19T05:33:49.418Z,22.33
2023-03-19T05:36:20.623Z,21.95
2023-03-19T05:38:48.937Z,23.05
2023-03-19T05:41:17.524Z,23.33
2023-03-19T05:43:45.804Z,22.92
2023-03-19T05:46:14.457Z,22.73
2023-03-19T05:48:42.747Z,22.77
2023-03-19T05:51:12.780Z,22.48
2023-03-19T05:53:41.623Z,22.83
2023-03-19T05:56:10.325Z,23.50
2023-03-19T05:58:38.941Z,22.60
2023-03-19T06:01:07.291Z,23.20
2023-03-19T06:03:35.856Z,24.05
2023-03-19T06:06:04.519Z,24.92
2023-03-19T06:08:34.780Z,24.58
2023-03-19T06:11:04.256Z,24.73
2023-03-19T06:13:32.933Z,25.40
2023-03-19T06:16:01.963Z,25.35
2023-03-19T06:18:30.321Z,26.27
2023-03-19T06:20:58.600Z,26.08
2023-03-19T06:23:27.284Z,26.92
2023-03-19T06:25:57.062Z,26.48
2023-03-19T06:28:25.496Z,26.15
2023-03-19T06:30:56.965Z,25.67
2023-03-19T06:33:27.722Z,26.17
2023-03-19T06:35:56.533Z,26.15
2023-03-19T06:38:25.022Z,25.75
2023-03-19T06:40:53.312Z,24.25
2023-03-19T06:43:23.154Z,24.13
2023-03-19T06:45:52.156Z,24.63
2023-03-19T06:48:23.448Z,24.95
2023-03-19T06:50:54.009Z,23.20
2023-03-19T06:53:22.343Z,21.77
2023-03-19T06:55:50.670Z,20.10
2023-03-19T06:58:19.014Z,20.67
2023-03-19T07:00:49.353Z,20.52
2023-03-19T07:03:41.914Z,18.45
2023-03-19T07:06:10.388Z,20.08
2023-03-19T07:08:38.839Z,20.40
2023-03-19T07:11:35.906Z,19.25
2023-03-19T07:14:23.858Z,16.15
2023-03-19T07:16:56.372Z,15.70
2023-03-19T07:19:27.970Z,17.90
2023-03-19T07:21:56.243Z,17.77
2023-03-19T07:24:39.521Z,18.23
2023-03-19T07:27:10.341Z,18.67
2023-03-19T07:29:38.762Z,18.58
2023-03-19T07:32:13.316Z,17.80
2023-03-19T07:34:45.922Z,16.23
2023-03-19T07:37:14.426Z,16.75
2023-03-19T07:39:43.116Z,17.40
2023-03-19T07:42:14.319Z,18.48
2023-03-19T07:44:42.776Z,20.70
2023-03-19T07:47:27.989Z,19.30
2023-03-19T07:50:00.784Z,20.75
2023-03-19T07:52:37.224Z,20.13
2023-03-19T07:55:17.312Z,21.80
2023-03-19T07:58:06.824Z,21.35
2023-03-19T08:00:51.641Z,20.30
2023-03-19T08:03:34.294Z,19.55
2023-03-19T08:06:24.218Z,18.98
2023-03-19T08:09:08.312Z,20.58
2023-03-19T08:11:39.676Z,19.23
2023-03-19T08:14:08.002Z,20.10
2023-03-19T08:16:38.267Z,21.00
2023-03-19T08:19:08.283Z,21.88
2023-03-19T08:21:37.385Z,21.77
2023-03-19T08:24:06.284Z,20.85
2023-03-19T08:26:34.811Z,22.75
2023-03-19T08:29:04.330Z,21.27
2023-03-19T08:31:33.022Z,19.13
2023-03-19T08:34:07.571Z,21.02
2023-03-19T08:36:38.130Z,21.33
2023-03-19T08:39:06.873Z,21.92
2023-03-19T08:41:35.466Z,22.13
2023-03-19T08:44:03.903Z,22.25
2023-03-19T08:46:33.558Z,20.45
2023-03-19T08:49:04.096Z,20.73
2023-03-19T08:51:32.660Z,22.30
2023-03-19T08:54:05.859Z,22.52
2023-03-19T08:56:34.178Z,23.02
2023-03-19T08:59:14.583Z,22.00
2023-03-19T09:01:46.287Z,22.77
2023-03-19T09:04:14.630Z,23.13
2023-03-19T09:06:43.756Z,23.33
2023-03-19T09:09:13.595Z,23.83
2023-03-19T09:11:41.902Z,21.67
2023-03-19T09:14:11.653Z,21.13
2023-03-19T09:16:40.081Z,22.23
2023-03-19T09:19:09.513Z,19.77
2023-03-19T09:21:39.613Z,20.25
2023-03-19T09:24:08.623Z,20.85
2023-03-19T09:26:38.432Z,20.08
2023-03-19T09:29:07.173Z,20.33
2023-03-19T09:31:36.425Z,18.63
2023-03-19T09:34:04.929Z,18.70
2023-03-19T09:36:33.759Z,19.50
2023-03-19T09:39:02.721Z,19.42
2023-03-19T09:41:41.297Z,20.63
2023-03-19T09:44:16.246Z,20.23
2023-03-19T09:46:49.628Z,21.10
2023-03-19T09:49:26.591Z,21.20
2023-03-19T09:51:58.638Z,23.10
2023-03-19T09:54:31.978Z,23.88
2023-03-19T09:57:02.506Z,22.13
2023-03-19T09:59:32.239Z,23.33
2023-03-19T10:02:26.071Z,22.55
2023-03-19T10:05:17.649Z,23.67
2023-03-19T10:08:13.562Z,23.83
2023-03-19T10:11:03.558Z,24.17
2023-03-19T10:13:44.136Z,24.05
2023-03-19T10:16:20.142Z,24.35
2023-03-19T10:18:52.430Z,22.90
2023-03-19T10:21:28.686Z,22.20
2023-03-19T10:24:02.189Z,23.60
2023-03-19T10:26:35.561Z,23.50
2023-03-19T10:29:10.643Z,23.33
2023-03-19T10:31:53.957Z,22.42
2023-03-19T10:34:35.661Z,21.48
2023-03-19T10:37:08.211Z,21.58
2023-03-19T10:39:39.169Z,23.50
2023-03-19T10:42:31.260Z,23.50
2023-03-19T10:45:07.727Z,23.77
2023-03-19T10:47:41.190Z,23.88
2023-03-19T10:50:20.110Z,22.88
2023-03-19T10:52:53.202Z,23.85
2023-03-19T10:55:27.043Z,24.13
2023-03-19T10:58:04.621Z,23.58
2023-03-19T11:00:36.015Z,23.52
2023-03-19T11:03:05.571Z,23.90
2023-03-19T11:05:35.870Z,23.98
2023-03-19T11:08:34.530Z,23.83
2023-03-19T11:11:04.021Z,23.35
2023-03-19T11:13:36.033Z,24.92
2023-03-19T11:16:06.509Z,24.75
2023-03-19T11:18:40.506Z,25.35
2023-03-19T11:21:22.192Z,23.67
2023-03-19T11:23:55.298Z,23.25
2023-03-19T11:26:24.753Z,24.13
2023-03-19T11:28:53.501Z,24.20
2023-03-19T11:31:30.446Z,24.60
2023-03-19T11:34:20.322Z,24.30
2023-03-19T11:36:57.208Z,24.17
2023-03-19T11:39:30.948Z,23.88
2023-03-19T11:42:21.169Z,23.33
2023-03-19T11:45:04.985Z,21.70
2023-03-19T11:47:44.746Z,22.80
2023-03-19T11:50:26.064Z,20.83
2023-03-19T11:53:08.039Z,22.65
2023-03-19T11:55:49.573Z,21.27
2023-03-19T11:58:51.886Z,21.88
2023-03-19T12:01:39.287Z,21.92
2023-03-19T12:05:15.763Z,21.67
2023-03-19T12:07:58.253Z,21.95
2023-03-19T12:10:41.312Z,22.63
2023-03-19T12:13:38.962Z,21.15
2023-03-19T12:16:21.105Z,20.45
2023-03-19T12:19:17.764Z,20.08
2023-03-19T12:22:03.289Z,19.60
2023-03-19T12:24:53.163Z,20.25
2023-03-19T12:27:31.548Z,20.52
2023-03-19T12:30:05.542Z,21.30
2023-03-19T12:32:56.553Z,19.90
2023-03-19T12:35:33.702Z,19.00
2023-03-19T12:38:14.004Z,17.90
2023-03-19T12:40:50.254Z,16.73
2023-03-19T12:43:46.130Z,18.33
2023-03-19T12:46:21.717Z,15.60
2023-03-19T12:48:54.555Z,17.13
2023-03-19T12:51:28.905Z,16.92
2023-03-19T12:54:01.376Z,14.85
2023-03-19T12:56:38.795Z,14.80
2023-03-19T12:59:17.420Z,15.00
2023-03-19T13:01:51.318Z,16.40
2023-03-19T13:04:25.125Z,16.17
2023-03-19T13:07:00.018Z,15.15
2023-03-19T13:09:34.116Z,17.02
2023-03-19T13:12:13.057Z,17.58
2023-03-19T13:14:54.174Z,19.75
2023-03-19T13:17:30.798Z,18.85
2023-03-19T13:20:02.927Z,19.30
2023-03-19T13:22:37.451Z,18.80
2023-03-19T13:25:08.439Z,20.10
2023-03-19T13:27:38.872Z,20.20
2023-03-19T13:30:22.133Z,19.67
2023-03-19T13:32:54.469Z,18.95
2023-03-19T13:35:38.721Z,20.67
2023-03-19T13:38:17.058Z,21.77
2023-03-19T13:40:48.901Z,22.25
2023-03-19T13:43:43.547Z,21.20
2023-03-19T13:46:41.860Z,22.08
2023-03-19T13:49:33.868Z,20.98
2023-03-19T13:52:44.897Z,18.27
2023-03-19T13:55:46.731Z,15.57
2023-03-19T13:58:39.209Z,14.18
2023-03-19T14:01:13.005Z,13.50
2023-03-19T14:03:56.093Z,14.18
2023-03-19T14:06:39.781Z,14.27
2023-03-19T14:09:33.681Z,15.43
2023-03-19T14:12:32.707Z,14.00
2023-03-19T14:15:05.406Z,13.65
2023-03-19T14:17:38.072Z,11.80
2023-03-19T14:20:35.527Z,11.45
2023-03-19T14:23:30.584Z,9.80
2023-03-19T14:26:12.926Z,10.20
2023-03-19T14:28:53.497Z,10.57
2023-03-19T14:31:29.951Z,9.77
2023-03-19T14:34:07.679Z,11.55
2023-03-19T14:36:41.976Z,10.98
2023-03-19T14:39:21.682Z,11.73
2023-03-19T14:41:57.529Z,10.98
2023-03-19T14:45:19.383Z,12.70
2023-03-19T14:48:14.110Z,11.98
2023-03-19T14:51:20.041Z,12.52
2023-03-19T14:53:53.975Z,12.13
2023-03-19T14:56:27.715Z,11.73
2023-03-19T14:59:03.090Z,11.90
2023-03-19T15:01:34.863Z,11.40
2023-03-19T15:04:08.139Z,13.57
2023-03-19T15:06:41.839Z,13.63
2023-03-19T15:09:20.331Z,11.88
2023-03-19T15:12:28.324Z,11.50
2023-03-19T15:15:32.798Z,11.23
2023-03-19T15:18:05.037Z,11.50
2023-03-19T15:20:39.298Z,10.48
2023-03-19T15:23:25.791Z,10.77
2023-03-19T15:25:58.306Z,9.98
2023-03-19T15:28:28.396Z,9.70
2023-03-19T15:31:14.438Z,10.55
2023-03-19T15:33:48.191Z,10.55
2023-03-19T15:36:23.136Z,12.00
2023-03-19T15:38:57.805Z,11.75
2023-03-19T15:41:29.624Z,10.65
2023-03-19T15:43:58.043Z,10.27
2023-03-19T15:46:32.366Z,10.73
2023-03-19T15:49:07.459Z,8.70
2023-03-19T15:51:36.149Z,8.50
2023-03-19T15:54:07.023Z,8.85
2023-03-19T15:56:36.362Z,8.68
2023-03-19T15:59:07.108Z,9.00
2023-03-19T16:01:36.113Z,8.15
2023-03-19T16:04:09.069Z,8.07
2023-03-19T16:06:40.365Z,8.30
2023-03-19T16:09:25.474Z,7.80
2023-03-19T16:11:57.044Z,8.38
2023-03-19T16:14:30.333Z,8.68
2023-03-19T16:17:03.609Z,8.88
2023-03-19T16:19:37.971Z,9.93
2023-03-19T16:22:19.109Z,9.98
2023-03-19T16:24:50.894Z,8.68
2023-03-19T16:27:22.942Z,8.07
2023-03-19T16:29:59.499Z,8.35
2023-03-19T16:32:29.925Z,8.98
2023-03-19T16:35:06.310Z,8.07
2023-03-19T16:37:42.297Z,7.85
2023-03-19T16:40:47.095Z,7.70
2023-03-19T16:43:26.034Z,7.93
2023-03-19T16:46:06.736Z,7.93
2023-03-19T16:48:39.156Z,9.07
2023-03-19T16:51:16.853Z,8.18
2023-03-19T16:53:46.963Z,8.65
2023-03-19T16:56:18.835Z,8.15
2023-03-19T16:58:48.385Z,8.45
2023-03-19T17:01:22.583Z,8.50
2023-03-19T17:03:52.129Z,9.25
2023-03-19T17:06:21.826Z,9.02
2023-03-19T17:08:50.745Z,9.45
2023-03-19T17:11:27.333Z,8.45
2023-03-19T17:13:58.564Z,8.27
2023-03-19T17:16:28.636Z,8.50
2023-03-19T17:18:57.834Z,8.88
2023-03-19T17:21:31.387Z,8.32
2023-03-19T17:24:01.120Z,9.38
2023-03-19T17:26:31.098Z,10.23
2023-03-19T17:28:59.636Z,10.10
2023-03-19T17:31:31.737Z,9.90
2023-03-19T17:34:04.231Z,10.45
2023-03-19T17:36:36.273Z,9.38
2023-03-19T17:39:11.003Z,9.73
2023-03-19T17:41:41.058Z,10.10
2023-03-19T17:44:09.539Z,9.73
2023-03-19T17:46:40.990Z,9.93
2023-03-19T17:49:19.859Z,10.35
2023-03-19T17:51:48.580Z,12.40
2023-03-19T17:54:16.930Z,11.25
2023-03-19T17:56:46.604Z,12.15
2023-03-19T17:59:17.909Z,12.20
2023-03-19T18:01:47.553Z,11.80
2023-03-19T18:04:18.798Z,12.05
2023-03-19T18:06:51.488Z,13.00
2023-03-19T18:09:25.742Z,13.23
2023-03-19T18:11:56.698Z,13.32
2023-03-19T18:14:25.219Z,13.95
2023-03-19T18:16:58.420Z,15.40
2023-03-19T18:19:32.058Z,15.38
2023-03-19T18:22:02.373Z,15.82
2023-03-19T18:24:33.647Z,15.07
2023-03-19T18:27:03.713Z,14.02
2023-03-19T18:29:40.672Z,12.50
2023-03-19T18:32:18.578Z,11.82
2023-03-19T18:34:47.371Z,11.75
2023-03-19T18:37:19.118Z,10.73
2023-03-19T18:39:47.657Z,10.52
2023-03-19T18:42:18.053Z,10.45
2023-03-19T18:44:46.546Z,10.90
2023-03-19T18:47:17.129Z,11.50
2023-03-19T18:49:45.587Z,10.38
2023-03-19T18:52:19.510Z,10.52
2023-03-19T18:54:48.490Z,10.95
2023-03-19T18:57:20.459Z,10.70
2023-03-19T18:59:51.242Z,12.05
2023-03-19T19:02:32.351Z,10.73
2023-03-19T19:05:01.115Z,11.50
2023-03-19T19:07:29.537Z,10.43
2023-03-19T19:09:57.870Z,10.73
2023-03-19T19:12:28.555Z,9.18
2023-03-19T19:15:06.461Z,9.00
2023-03-19T19:17:35.385Z,8.20
2023-03-19T19:20:03.863Z,9.63
2023-03-19T19:22:32.210Z,9.88
2023-03-19T19:25:00.747Z,9.25
2023-03-19T19:27:30.642Z,8.35
2023-03-19T19:30:00.827Z,7.78
2023-03-19T19:32:32.304Z,7.55
2023-03-19T19:35:02.106Z,7.93
2023-03-19T19:37:30.537Z,7.22
2023-03-19T19:39:59.459Z,5.85
2023-03-19T19:42:34.157Z,6.13
2023-03-19T19:45:06.293Z,7.32
2023-03-19T19:47:36.130Z,7.53
2023-03-19T19:50:05.586Z,7.68
2023-03-19T19:52:33.901Z,7.18
2023-03-19T19:55:02.411Z,6.70
2023-03-19T19:57:32.241Z,6.15
2023-03-19T20:00:00.857Z,5.97
2023-03-19T20:02:31.180Z,6.70
2023-03-19T20:05:03.178Z,6.72
2023-03-19T20:07:32.830Z,5.85
2023-03-19T20:10:01.247Z,6.30
2023-03-19T20:12:34.179Z,5.70
2023-03-19T20:15:06.327Z,5.28
2023-03-19T20:17:35.675Z,5.53
2023-03-19T20:20:04.789Z,5.18
2023-03-19T20:22:34.180Z,4.93
2023-03-19T20:25:04.426Z,4.15
2023-03-19T20:27:36.407Z,4.65
2023-03-19T20:30:11.644Z,4.82
2023-03-19T20:32:44.218Z,4.90
2023-03-19T20:35:19.396Z,5.35
2023-03-19T20:37:48.284Z,6.07
2023-03-19T20:40:24.244Z,7.22
2023-03-19T20:42:55.621Z,8.68
2023-03-19T20:45:28.698Z,9.77
2023-03-19T20:47:57.370Z,10.23
2023-03-19T20:50:31.584Z,11.07
2023-03-19T20:53:03.635Z,12.00
2023-03-19T20:55:35.159Z,11.35
2023-03-19T20:58:35.041Z,12.15
2023-03-19T21:01:10.256Z,11.07
2023-03-19T21:03:48.088Z,9.75
2023-03-19T21:06:20.519Z,8.80
2023-03-19T21:08:53.381Z,8.68
2023-03-19T21:11:23.916Z,8.23
2023-03-19T21:13:55.159Z,8.88
2023-03-19T21:16:26.524Z,9.43
2023-03-19T21:18:55.228Z,8.10
2023-03-19T21:21:31.189Z,7.78
2023-03-19T21:24:08.158Z,8.90
2023-03-19T21:26:38.989Z,7.60
2023-03-19T21:29:15.937Z,7.85
2023-03-19T21:31:44.687Z,8.15
2023-03-19T21:34:17.641Z,6.85
2023-03-19T21:36:46.077Z,8.48
2023-03-19T21:39:14.442Z,7.80
2023-03-19T21:41:43.726Z,7.47
2023-03-19T21:44:18.163Z,7.88
2023-03-19T21:46:48.203Z,9.35
2023-03-19T21:49:17.212Z,8.82
2023-03-19T21:51:46.832Z,9.50
2023-03-19T21:54:15.799Z,9.43
2023-03-19T21:56:46.515Z,9.52
2023-03-19T21:59:19.446Z,9.15
2023-03-19T22:01:47.819Z,9.27
2023-03-19T22:04:16.361Z,9.75
2023-03-19T22:06:44.868Z,9.75
2023-03-19T22:09:13.341Z,9.77
2023-03-19T22:11:42.704Z,9.70
2023-03-19T22:14:20.134Z,9.38
2023-03-19T22:16:55.737Z,9.68
2023-03-19T22:19:25.882Z,8.38
2023-03-19T22:21:55.305Z,8.80
2023-03-19T22:24:23.867Z,9.05
2023-03-19T22:26:58.130Z,8.48
2023-03-19T22:29:28.548Z,7.60
2023-03-19T22:32:00.112Z,7.80
2023-03-19T22:34:29.229Z,8.63
2023-03-19T22:36:57.727Z,7.35
2023-03-19T22:39:26.543Z,7.70
2023-03-19T22:41:55.019Z,7.57
2023-03-19T22:44:28.515Z,7.50
2023-03-19T22:46:58.791Z,7.60
2023-03-19T22:49:28.101Z,7.18
2023-03-19T22:51:57.710Z,5.85
2023-03-19T22:54:27.497Z,5.72
2023-03-19T22:56:55.821Z,5.90
2023-03-19T22:59:24.296Z,5.78
2023-03-19T23:01:54.098Z,6.35
2023-03-19T23:04:24.636Z,6.13
2023-03-19T23:06:54.867Z,5.63
2023-03-19T23:09:26.133Z,5.55
2023-03-19T23:11:54.821Z,5.78
2023-03-19T23:14:30.003Z,5.75
2023-03-19T23:17:04.632Z,6.57
2023-03-19T23:19:36.084Z,6.15
2023-03-19T23:22:07.522Z,6.60
2023-03-19T23:24:35.907Z,6.60
2023-03-19T23:27:06.732Z,6.30
2023-03-19T23:29:39.817Z,7.07
2023-03-19T23:32:11.774Z,6.88
2023-03-19T23:34:56.561Z,6.25
2023-03-19T23:37:28.902Z,7.82
2023-03-19T23:39:57.888Z,7.28
2023-03-19T23:42:30.126Z,8.52
2023-03-19T23:45:03.591Z,7.50
2023-03-19T23:47:33.755Z,8.10
2023-03-19T23:50:02.465Z,7.85
2023-03-19T23:52:30.756Z,8.93
2023-03-19T23:54:59.800Z,8.43
2023-03-19T23:57:28.319Z,7.97
2023-03-19T23:59:56.795Z,8.93
